Ladera Ranch, CA

4:59 PM PST on January 28, 2015 (GMT -0800)
Covenant Hills | Change Station
CLOSE
Current Station
Personal Weather Station
Location: Ladera Ranch, CA
Elevation: 427 ft
Nearby Weather Stations

Elev 427 ft 33.53 °N, 117.64 °W | Updated 4 minutes ago

Partly Cloudy
Partly Cloudy
67.5 °F
Feels Like 67.5 °F
N
0.0
Wind Variable Wind from WSW
Gusts 0.0 mph

Today
High -- | Low -- °F
--% Chance of Precip.
Yesterday
High -- | Low -- °F
Precip. -- in
6:49 AM 5:17 PM
Waxing Gibbous, 69% visible
Pressure 30.05 in
Visibility 10.0 miles
Clouds Few 8000 ft
Scattered Clouds 20000 ft
Overcast 30000 ft
Dew Point 50 °F
Humidity 54%
Rainfall 0.00 in
Snow Depth Not available.
UV 0 out of 12
Pollen 7.20 out of 12
Air Quality Not available.
Flu Activity Not available.
METAR KSNA 290053Z 00000KT 10SM FEW080 SCT200 OVC300 22/10 A3005 RMK AO2 SLP176 T02170100

More Conditions Fewer Conditions

Pressure 30.05 in
Visibility 10.0 miles
Clouds Few 8000 ft
Scattered Clouds 20000 ft
Overcast 30000 ft
Dew Point 50 °F
Humidity 54%
Rainfall 0.00 in
Snow Depth Not available.
UV 0 out of 12
Pollen 7.20 out of 12
Air Quality Not available.
Flu Activity Not available.
METAR KSNA 290053Z 00000KT 10SM FEW080 SCT200 OVC300 22/10 A3005 RMK AO2 SLP176 T02170100

More Conditions Fewer Conditions

10-Day Weather Forecast

Almanac

Astronomy

Jan. 28, 2015 Rise Set
Actual Time
Civil Twilight
Nautical Twilight
Astronomical Twilight
Moon
Length of Visible Light
Length of Day
Tomorrow will be .
, % of the Moon is Illuminated

Today's Extremes

State Highs State Lows

Community

WunderPhotos

Upload Photos

1,791,310 photos uploaded!

WunderBlogs® & News

Nearby

Air Quality

  Air Quality AQ Index Pollutant
Not available.

Snow Depth

Station Depth Elevation

Earthquake Activity

City Distance Mag. Time & Date
Minimum magnitude displayed is 2.5.

Coastal Water Temperatures

Place Temperature

Nearby Weather Stations